Time;durP1;ratioP1;P1;durP2;ratioP2;P2;SDS_P1;SDS_P2;PMS_P1;PMS_P2;Temp;Humidity;BMP_temperature;BMP_pressure;BME280_temperature;BME280_humidity;BME280_pressure;Samples;Min_cycle;Max_cycle;Signal;HPM_P1;HPM_P2
2022/11/22 00:00:44;;;;;;;6.97;2.63;;;;;;;;;;5010726;28;20042;-77
2022/11/22 00:03:11;;;;;;;7.03;2.10;;;;;;;;;;5009056;28;20026;-77
2022/11/22 00:05:37;;;;;;;5.63;1.90;;;;;;;;;;5011406;28;20042;-76
2022/11/22 00:08:03;;;;;;;5.68;1.70;;;;;;;;;;5010214;28;20336;-77
2022/11/22 00:10:31;;;;;;;3.22;1.95;;;;;;;;;;5010473;28;20057;-77
2022/11/22 00:12:57;;;;;;;2.90;1.58;;;;;;;;;;5011062;28;20040;-77
2022/11/22 00:15:23;;;;;;;6.60;2.35;;;;;;;;;;5010596;28;20053;-77
2022/11/22 00:17:49;;;;;;;10.65;3.30;;;;;;;;;;5010553;28;20400;-76
2022/11/22 00:20:16;;;;;;;6.88;2.30;;;;;;;;;;5009940;28;20062;-76
2022/11/22 00:22:42;;;;;;;3.55;2.30;;;;;;;;;;5010478;28;20060;-76
2022/11/22 00:25:08;;;;;;;5.85;2.38;;;;;;;;;;5010960;28;20152;-77
2022/11/22 00:27:34;;;;;;;6.72;3.60;;;;;;;;;;5009705;28;20080;-79
2022/11/22 00:30:00;;;;;;;5.68;2.80;;;;;;;;;;5009357;28;20037;-75
2022/11/22 00:32:26;;;;;;;7.03;2.80;;;;;;;;;;5000817;28;20062;-77
2022/11/22 00:34:52;;;;;;;4.93;3.05;;;;;;;;;;5009965;28;20069;-77
2022/11/22 00:37:18;;;;;;;4.15;2.75;;;;;;;;;;5005432;28;20064;-77
2022/11/22 00:39:44;;;;;;;5.93;3.00;;;;;;;;;;5009104;28;20030;-77
2022/11/22 00:42:10;;;;;;;4.63;2.40;;;;;;;;;;5010963;28;20083;-77
2022/11/22 00:44:36;;;;;;;5.13;2.33;;;;;;;;;;5010516;28;20128;-77
2022/11/22 00:47:02;;;;;;;5.47;1.83;;;;;;;;;;5006621;28;20555;-77
2022/11/22 00:49:28;;;;;;;3.67;1.70;;;;;;;;;;5005473;28;20084;-75
2022/11/22 00:51:53;;;;;;;2.80;1.33;;;;;;;;;;5011563;28;20547;-76
2022/11/22 00:54:53;;;;;;;3.15;1.33;;;;;;;;;;4997153;28;20025;-76
2022/11/22 00:57:19;;;;;;;4.80;1.10;;;;;;;;;;4996237;28;20042;-76
2022/11/22 00:59:45;;;;;;;2.45;1.20;;;;;;;;;;5017505;28;20427;-78
2022/11/22 01:02:11;;;;;;;4.18;1.00;;;;;;;;;;5011700;28;20061;-76
2022/11/22 01:04:37;;;;;;;1.42;0.90;;;;;;;;;;4985692;28;20030;-76
2022/11/22 01:07:03;;;;;;;1.58;0.77;;;;;;;;;;5004180;28;20529;-77
2022/11/22 01:09:29;;;;;;;6.65;1.10;;;;;;;;;;4999728;28;20559;-77
2022/11/22 01:11:54;;;;;;;1.73;0.80;;;;;;;;;;5005004;28;20137;-76
2022/11/22 01:14:21;;;;;;;2.58;0.90;;;;;;;;;;5017267;28;20026;-77
2022/11/22 01:16:47;;;;;;;2.45;1.00;;;;;;;;;;5009698;28;20133;-77
2022/11/22 01:19:13;;;;;;;2.95;1.10;;;;;;;;;;5005951;28;20151;-77
2022/11/22 01:21:40;;;;;;;1.98;1.02;;;;;;;;;;5001611;28;20045;-76
2022/11/22 01:24:08;;;;;;;3.67;1.13;;;;;;;;;;4995114;28;20026;-75
2022/11/22 01:26:34;;;;;;;2.50;0.90;;;;;;;;;;4998913;28;20033;-77
2022/11/22 01:29:00;;;;;;;2.70;1.15;;;;;;;;;;5007182;28;20026;-77
2022/11/22 01:31:26;;;;;;;2.55;1.15;;;;;;;;;;5012864;28;20530;-77
2022/11/22 01:33:52;;;;;;;3.20;1.35;;;;;;;;;;5012371;28;20022;-77
2022/11/22 01:36:18;;;;;;;7.72;1.45;;;;;;;;;;5013225;28;20076;-77
2022/11/22 01:38:44;;;;;;;2.20;1.30;;;;;;;;;;5013322;28;20018;-77
2022/11/22 01:41:10;;;;;;;2.63;1.20;;;;;;;;;;5012183;28;20103;-77
2022/11/22 01:43:35;;;;;;;2.35;1.10;;;;;;;;;;5013262;28;20026;-77
2022/11/22 01:46:36;;;;;;;2.95;1.25;;;;;;;;;;5019751;28;20028;-77
2022/11/22 01:49:09;;;;;;;2.53;1.30;;;;;;;;;;5030696;28;20083;-77
2022/11/22 01:51:39;;;;;;;8.23;1.65;;;;;;;;;;5033179;28;20036;-77
2022/11/22 01:54:11;;;;;;;3.97;1.95;;;;;;;;;;5026914;28;20053;-77
2022/11/22 01:56:39;;;;;;;3.07;1.20;;;;;;;;;;5011799;28;20029;-77
2022/11/22 01:59:11;;;;;;;3.72;1.33;;;;;;;;;;5012899;28;20022;-78
2022/11/22 02:01:37;;;;;;;6.45;1.10;;;;;;;;;;5012639;28;20077;-77
2022/11/22 02:04:06;;;;;;;1.95;1.13;;;;;;;;;;5012968;28;20053;-78
2022/11/22 02:06:50;;;;;;;3.60;1.40;;;;;;;;;;5012853;28;20408;-77
2022/11/22 02:09:17;;;;;;;3.17;1.10;;;;;;;;;;5011404;28;20038;-77
2022/11/22 02:11:47;;;;;;;3.75;1.23;;;;;;;;;;5012557;28;20105;-77
2022/11/22 02:14:17;;;;;;;4.47;1.20;;;;;;;;;;5012801;28;20034;-77
2022/11/22 02:16:45;;;;;;;2.40;1.27;;;;;;;;;;5012283;28;20029;-77
2022/11/22 02:19:18;;;;;;;4.03;1.30;;;;;;;;;;5011204;28;20028;-77
2022/11/22 02:21:49;;;;;;;2.95;1.30;;;;;;;;;;5012639;28;20054;-77
2022/11/22 02:24:24;;;;;;;3.83;1.30;;;;;;;;;;5012555;28;20041;-78
2022/11/22 02:26:50;;;;;;;3.63;1.10;;;;;;;;;;5011312;28;20041;-77
2022/11/22 02:29:18;;;;;;;3.22;1.40;;;;;;;;;;5012505;28;20026;-78
2022/11/22 02:31:46;;;;;;;1.95;1.20;;;;;;;;;;5010782;28;20049;-77
2022/11/22 02:34:12;;;;;;;2.47;1.30;;;;;;;;;;5012480;28;20040;-78
2022/11/22 02:36:49;;;;;;;3.72;1.50;;;;;;;;;;5012503;28;20117;-78
2022/11/22 02:39:18;;;;;;;6.43;1.77;;;;;;;;;;5012249;28;20506;-77
2022/11/22 02:41:44;;;;;;;3.58;1.60;;;;;;;;;;5012219;28;20124;-77
2022/11/22 02:44:12;;;;;;;4.43;1.55;;;;;;;;;;4999303;28;20043;-77
2022/11/22 02:46:53;;;;;;;7.50;1.52;;;;;;;;;;5024015;28;20018;-76
2022/11/22 02:49:22;;;;;;;3.35;1.63;;;;;;;;;;5031615;28;20037;-77
2022/11/22 02:51:48;;;;;;;4.72;1.20;;;;;;;;;;5032924;28;20103;-77
2022/11/22 02:54:14;;;;;;;2.03;1.20;;;;;;;;;;5037410;28;20479;-76
2022/11/22 02:56:40;;;;;;;6.13;2.20;;;;;;;;;;5041407;28;20045;-78
2022/11/22 02:59:06;;;;;;;3.70;1.50;;;;;;;;;;5031755;28;20120;-77
2022/11/22 03:01:33;;;;;;;6.10;1.55;;;;;;;;;;5020146;28;20042;-77
2022/11/22 03:03:59;;;;;;;2.80;1.70;;;;;;;;;;5011276;28;20032;-77
2022/11/22 03:06:26;;;;;;;5.40;2.30;;;;;;;;;;5011186;28;20396;-76
2022/11/22 03:08:52;;;;;;;4.05;2.55;;;;;;;;;;5009681;28;20457;-76
2022/11/22 03:11:17;;;;;;;3.55;2.42;;;;;;;;;;5010898;28;20128;-77
2022/11/22 03:13:43;;;;;;;4.90;2.60;;;;;;;;;;5011418;28;20037;-77
2022/11/22 03:16:09;;;;;;;5.03;2.63;;;;;;;;;;5011006;28;20127;-77
2022/11/22 03:18:36;;;;;;;5.38;2.22;;;;;;;;;;5011333;28;20053;-77
2022/11/22 03:21:03;;;;;;;3.63;1.60;;;;;;;;;;5010110;28;20472;-77
2022/11/22 03:23:30;;;;;;;3.92;2.28;;;;;;;;;;5010182;28;20081;-77
2022/11/22 03:25:56;;;;;;;6.72;2.67;;;;;;;;;;5011591;28;20036;-76
2022/11/22 03:28:22;;;;;;;6.47;2.60;;;;;;;;;;5011284;28;20065;-77
2022/11/22 03:30:48;;;;;;;8.50;2.58;;;;;;;;;;5010409;28;20053;-76
2022/11/22 03:33:14;;;;;;;5.47;2.22;;;;;;;;;;5011656;28;20038;-78
2022/11/22 03:35:40;;;;;;;8.63;2.28;;;;;;;;;;5011700;28;20037;-77
2022/11/22 03:38:05;;;;;;;7.68;2.22;;;;;;;;;;5011147;28;20034;-78
2022/11/22 03:40:32;;;;;;;7.78;2.88;;;;;;;;;;5011594;28;20018;-77
2022/11/22 03:43:00;;;;;;;12.30;3.05;;;;;;;;;;5010847;28;20033;-77
2022/11/22 03:45:27;;;;;;;8.93;3.03;;;;;;;;;;5010986;28;20025;-77
2022/11/22 03:47:54;;;;;;;9.05;2.92;;;;;;;;;;5010845;28;20034;-77
2022/11/22 03:50:21;;;;;;;20.90;3.88;;;;;;;;;;4984982;28;20037;-77
2022/11/22 03:52:47;;;;;;;15.52;3.58;;;;;;;;;;5013682;28;20037;-77
2022/11/22 03:55:12;;;;;;;7.40;2.70;;;;;;;;;;5013135;28;20519;-77
2022/11/22 03:57:38;;;;;;;9.65;3.08;;;;;;;;;;5011480;28;20049;-77
2022/11/22 04:00:05;;;;;;;9.38;3.33;;;;;;;;;;5011873;28;20029;-77
2022/11/22 04:02:37;;;;;;;8.88;3.30;;;;;;;;;;5011696;28;20114;-77
2022/11/22 04:05:03;;;;;;;8.73;3.25;;;;;;;;;;5011321;28;20042;-77
2022/11/22 04:07:29;;;;;;;6.82;2.50;;;;;;;;;;5010920;28;20475;-77
2022/11/22 04:09:55;;;;;;;4.82;2.25;;;;;;;;;;5011630;28;20141;-77
2022/11/22 04:12:21;;;;;;;5.00;2.72;;;;;;;;;;5010900;28;20036;-77
2022/11/22 04:17:43;;;;;;;6.10;2.17;;;;;;;;;;5009299;28;20121;-77
2022/11/22 04:22:56;;;;;;;11.02;2.67;;;;;;;;;;5014624;28;20133;-77
2022/11/22 04:25:24;;;;;;;4.95;2.30;;;;;;;;;;5014624;28;20065;-77
2022/11/22 04:27:53;;;;;;;5.00;2.35;;;;;;;;;;5014277;28;20045;-76
2022/11/22 04:30:19;;;;;;;7.63;2.95;;;;;;;;;;5014247;28;20018;-77
2022/11/22 04:32:45;;;;;;;6.10;2.45;;;;;;;;;;5013267;28;20042;-76
2022/11/22 04:35:13;;;;;;;10.77;3.50;;;;;;;;;;5014317;28;20516;-77
2022/11/22 04:37:40;;;;;;;11.13;2.95;;;;;;;;;;5012912;28;20030;-77
2022/11/22 04:40:06;;;;;;;4.68;2.38;;;;;;;;;;5012312;28;20539;-77
2022/11/22 04:45:18;;;;;;;6.28;2.83;;;;;;;;;;5012745;28;20045;-76
2022/11/22 04:47:59;;;;;;;5.03;2.25;;;;;;;;;;5000149;28;20026;-76
2022/11/22 04:53:11;;;;;;;7.47;2.40;;;;;;;;;;5014902;28;20084;-77
2022/11/22 04:55:37;;;;;;;10.05;3.08;;;;;;;;;;5014818;28;20033;-77
2022/11/22 04:58:03;;;;;;;13.80;2.83;;;;;;;;;;5014876;28;20045;-77
2022/11/22 05:00:30;;;;;;;7.03;2.70;;;;;;;;;;5015010;28;20026;-77
2022/11/22 05:02:57;;;;;;;11.07;3.00;;;;;;;;;;5012602;28;20083;-77
2022/11/22 05:05:25;;;;;;;9.60;2.97;;;;;;;;;;5014003;28;20450;-78
2022/11/22 05:07:51;;;;;;;11.15;4.20;;;;;;;;;;5012833;28;20037;-78
2022/11/22 05:10:17;;;;;;;8.20;4.35;;;;;;;;;;5014693;28;20468;-77
2022/11/22 05:12:43;;;;;;;11.63;4.65;;;;;;;;;;5015539;28;20539;-77
2022/11/22 05:15:10;;;;;;;7.45;3.55;;;;;;;;;;5017202;28;20049;-77
2022/11/22 05:17:37;;;;;;;7.80;3.20;;;;;;;;;;4996527;28;20519;-77
2022/11/22 05:20:04;;;;;;;10.85;3.80;;;;;;;;;;4995055;28;20015;-77
2022/11/22 05:25:15;;;;;;;13.50;5.25;;;;;;;;;;4995639;28;20117;-76
2022/11/22 05:27:40;;;;;;;15.85;5.10;;;;;;;;;;5001364;28;20114;-76
2022/11/22 05:30:07;;;;;;;16.00;5.45;;;;;;;;;;4994839;28;20046;-76
2022/11/22 05:32:33;;;;;;;14.10;3.65;;;;;;;;;;4993398;28;20030;-77
2022/11/22 05:34:59;;;;;;;18.73;4.75;;;;;;;;;;4995121;28;20068;-76
2022/11/22 05:37:25;;;;;;;9.15;3.90;;;;;;;;;;5012288;28;20050;-77
2022/11/22 05:39:51;;;;;;;14.15;4.53;;;;;;;;;;5014759;28;20030;-72
2022/11/22 05:42:17;;;;;;;14.80;4.28;;;;;;;;;;5011357;28;20435;-75
2022/11/22 05:44:43;;;;;;;11.00;3.33;;;;;;;;;;5009064;28;20038;-73
2022/11/22 05:47:09;;;;;;;16.13;3.40;;;;;;;;;;5008674;28;20484;-73
2022/11/22 05:49:35;;;;;;;7.32;3.42;;;;;;;;;;4979264;28;20037;-72
2022/11/22 05:52:02;;;;;;;9.25;3.15;;;;;;;;;;5011829;28;20029;-73
2022/11/22 05:54:31;;;;;;;8.00;3.03;;;;;;;;;;5013712;28;20029;-74
2022/11/22 05:56:57;;;;;;;6.68;2.88;;;;;;;;;;5012126;28;20032;-72
2022/11/22 05:59:23;;;;;;;9.48;2.90;;;;;;;;;;5011395;28;20042;-73
2022/11/22 06:01:50;;;;;;;17.17;3.85;;;;;;;;;;5012266;28;20026;-73
2022/11/22 06:04:16;;;;;;;11.40;3.70;;;;;;;;;;5011995;28;20033;-73
2022/11/22 06:06:41;;;;;;;9.48;3.58;;;;;;;;;;4998085;28;20026;-73
2022/11/22 06:09:07;;;;;;;10.45;3.92;;;;;;;;;;4993153;28;20042;-73
2022/11/22 06:11:34;;;;;;;6.55;3.65;;;;;;;;;;4993130;28;20042;-74
2022/11/22 06:14:03;;;;;;;7.65;3.72;;;;;;;;;;4994051;28;20153;-74
2022/11/22 06:16:30;;;;;;;12.68;5.35;;;;;;;;;;4996370;28;20403;-72
2022/11/22 06:18:56;;;;;;;24.02;4.93;;;;;;;;;;5012174;28;20040;-73
2022/11/22 06:21:24;;;;;;;6.93;3.22;;;;;;;;;;5013002;28;20037;-72
2022/11/22 06:23:54;;;;;;;5.60;3.42;;;;;;;;;;5009709;28;20037;-73
2022/11/22 06:26:23;;;;;;;8.68;3.20;;;;;;;;;;5015687;28;20034;-72
2022/11/22 06:28:50;;;;;;;7.72;3.85;;;;;;;;;;5010928;28;20480;-73
2022/11/22 06:31:20;;;;;;;4.18;2.75;;;;;;;;;;5012661;28;20133;-73
2022/11/22 06:33:47;;;;;;;6.10;2.80;;;;;;;;;;5010477;28;20041;-72
2022/11/22 06:36:20;;;;;;;4.97;2.05;;;;;;;;;;5012000;28;20041;-73
2022/11/22 06:38:47;;;;;;;4.78;2.90;;;;;;;;;;5012060;28;20037;-73
2022/11/22 06:41:21;;;;;;;5.47;2.30;;;;;;;;;;5010784;28;20029;-73
2022/11/22 06:43:49;;;;;;;4.43;2.50;;;;;;;;;;5010946;28;20563;-73
2022/11/22 06:46:18;;;;;;;6.03;2.97;;;;;;;;;;5013914;28;20022;-72
2022/11/22 06:48:44;;;;;;;5.93;2.67;;;;;;;;;;5006919;28;20049;-73
2022/11/22 06:51:13;;;;;;;4.82;2.60;;;;;;;;;;5009208;28;20670;-73
2022/11/22 06:53:40;;;;;;;5.30;2.70;;;;;;;;;;5012494;28;20026;-72
2022/11/22 06:56:33;;;;;;;5.82;3.00;;;;;;;;;;4988734;28;20049;-71
2022/11/22 06:59:05;;;;;;;10.15;3.28;;;;;;;;;;5009575;28;20065;-71
2022/11/22 07:01:32;;;;;;;14.27;3.75;;;;;;;;;;5011017;28;20080;-73
2022/11/22 07:03:59;;;;;;;8.27;3.05;;;;;;;;;;5011281;28;20029;-72
2022/11/22 07:06:27;;;;;;;10.13;4.63;;;;;;;;;;5011752;28;20036;-72
2022/11/22 07:08:53;;;;;;;7.80;4.38;;;;;;;;;;5012003;28;20022;-73
2022/11/22 07:11:22;;;;;;;9.00;2.70;;;;;;;;;;5011463;28;20056;-73
2022/11/22 07:13:48;;;;;;;6.80;3.25;;;;;;;;;;5011664;28;20022;-73
2022/11/22 07:16:18;;;;;;;9.35;3.30;;;;;;;;;;5011348;28;20423;-72
2022/11/22 07:18:44;;;;;;;12.43;3.38;;;;;;;;;;5011401;28;20038;-73
2022/11/22 07:21:15;;;;;;;7.40;3.42;;;;;;;;;;5010891;28;20032;-72
2022/11/22 07:23:43;;;;;;;10.23;3.63;;;;;;;;;;5010812;28;20073;-73
2022/11/22 07:26:10;;;;;;;9.88;3.47;;;;;;;;;;5008595;28;20049;-73
2022/11/22 07:28:36;;;;;;;12.27;5.53;;;;;;;;;;5004512;28;20030;-73
2022/11/22 07:31:06;;;;;;;14.35;6.50;;;;;;;;;;5010689;28;20391;-73
2022/11/22 07:33:33;;;;;;;21.35;8.90;;;;;;;;;;5011849;28;20037;-74
2022/11/22 07:36:20;;;;;;;12.00;3.97;;;;;;;;;;5011874;28;20022;-76
2022/11/22 07:38:47;;;;;;;15.77;3.03;;;;;;;;;;5011898;28;20025;-76
2022/11/22 07:41:14;;;;;;;5.40;2.90;;;;;;;;;;5010510;28;20053;-71
2022/11/22 07:43:40;;;;;;;7.50;3.00;;;;;;;;;;5011920;28;20045;-78
2022/11/22 07:46:17;;;;;;;10.13;4.75;;;;;;;;;;5011972;28;20480;-75
2022/11/22 07:48:43;;;;;;;6.90;3.30;;;;;;;;;;5011331;28;20030;-75
2022/11/22 07:51:09;;;;;;;6.35;3.90;;;;;;;;;;5016771;28;20021;-75
2022/11/22 07:53:36;;;;;;;6.13;3.15;;;;;;;;;;5010993;28;20114;-76
2022/11/22 07:56:03;;;;;;;5.88;2.97;;;;;;;;;;5015374;28;20025;-78
2022/11/22 07:58:30;;;;;;;4.53;2.60;;;;;;;;;;5015864;28;20360;-75
2022/11/22 08:00:56;;;;;;;4.35;2.55;;;;;;;;;;5013726;28;20088;-72
2022/11/22 08:03:22;;;;;;;8.10;2.65;;;;;;;;;;5013650;28;20392;-77
2022/11/22 08:05:48;;;;;;;6.35;2.53;;;;;;;;;;5014074;28;20018;-74
2022/11/22 08:08:13;;;;;;;6.70;3.35;;;;;;;;;;5016084;28;20041;-74
2022/11/22 08:10:39;;;;;;;12.80;3.92;;;;;;;;;;5010010;28;20026;-73
2022/11/22 08:13:05;;;;;;;11.40;3.78;;;;;;;;;;5014907;28;20066;-75
2022/11/22 08:15:31;;;;;;;5.90;3.50;;;;;;;;;;5013257;28;20056;-74
2022/11/22 08:17:58;;;;;;;5.72;2.95;;;;;;;;;;5015489;28;20061;-73
2022/11/22 08:20:24;;;;;;;4.60;2.58;;;;;;;;;;5015782;28;20113;-74
2022/11/22 08:22:50;;;;;;;5.80;2.75;;;;;;;;;;5015550;28;20389;-74
2022/11/22 08:25:15;;;;;;;4.95;2.95;;;;;;;;;;5015418;28;20037;-74
2022/11/22 08:27:43;;;;;;;5.57;3.03;;;;;;;;;;5015184;28;20045;-76
2022/11/22 08:30:10;;;;;;;4.63;2.33;;;;;;;;;;4995475;28;20416;-74
2022/11/22 08:32:36;;;;;;;6.28;2.47;;;;;;;;;;4995281;28;20506;-75
2022/11/22 08:35:02;;;;;;;6.72;2.90;;;;;;;;;;5014964;28;20514;-73
2022/11/22 08:37:28;;;;;;;12.02;3.33;;;;;;;;;;5014432;28;20054;-74
2022/11/22 08:39:55;;;;;;;8.10;3.60;;;;;;;;;;5014856;28;20026;-72
2022/11/22 08:42:21;;;;;;;10.48;3.47;;;;;;;;;;5008824;28;20113;-73
2022/11/22 08:44:49;;;;;;;9.55;3.22;;;;;;;;;;5015336;28;20021;-73
2022/11/22 08:47:15;;;;;;;5.18;2.65;;;;;;;;;;5014050;28;20034;-73
2022/11/22 08:49:40;;;;;;;5.00;2.22;;;;;;;;;;5013152;28;20044;-73
2022/11/22 08:52:06;;;;;;;7.55;2.03;;;;;;;;;;5013926;28;20116;-73
2022/11/22 08:54:32;;;;;;;5.05;2.17;;;;;;;;;;4995620;28;20038;-73
2022/11/22 08:56:58;;;;;;;3.40;1.92;;;;;;;;;;5011829;28;20112;-74
2022/11/22 08:59:24;;;;;;;3.83;1.90;;;;;;;;;;5011955;28;20057;-73
2022/11/22 09:01:50;;;;;;;7.05;2.35;;;;;;;;;;5011998;28;20026;-74
2022/11/22 09:04:16;;;;;;;7.72;2.45;;;;;;;;;;5013228;28;20022;-74
2022/11/22 09:06:41;;;;;;;33.63;13.27;;;;;;;;;;5012452;28;20038;-74
2022/11/22 09:09:07;;;;;;;5.47;1.65;;;;;;;;;;5026739;28;20492;-74
2022/11/22 09:11:33;;;;;;;10.60;1.90;;;;;;;;;;5032980;28;20491;-73
2022/11/22 09:13:59;;;;;;;7.85;1.90;;;;;;;;;;5032787;28;20088;-74
2022/11/22 09:16:27;;;;;;;3.95;1.70;;;;;;;;;;5032513;28;20137;-75
2022/11/22 09:18:53;;;;;;;3.95;1.60;;;;;;;;;;5029036;28;20241;-72
2022/11/22 09:21:20;;;;;;;3.30;1.80;;;;;;;;;;5013148;28;20045;-73
2022/11/22 09:23:47;;;;;;;6.53;1.80;;;;;;;;;;5023687;28;20132;-74
2022/11/22 09:26:16;;;;;;;3.40;1.60;;;;;;;;;;5032831;28;20538;-74
2022/11/22 09:28:42;;;;;;;3.60;2.17;;;;;;;;;;5032776;28;20026;-76
2022/11/22 09:31:14;;;;;;;3.70;1.70;;;;;;;;;;5031115;28;20045;-76
2022/11/22 09:33:45;;;;;;;5.05;2.17;;;;;;;;;;4993681;28;20107;-73
2022/11/22 09:36:16;;;;;;;5.53;2.00;;;;;;;;;;4993094;28;20485;-75
2022/11/22 09:38:42;;;;;;;6.68;2.50;;;;;;;;;;4993280;28;20026;-72
2022/11/22 09:41:52;;;;;;;3.75;1.92;;;;;;;;;;4993055;28;20037;-74
2022/11/22 09:44:36;;;;;;;2.92;1.83;;;;;;;;;;4994464;28;20037;-76
2022/11/22 09:47:34;;;;;;;4.55;2.60;;;;;;;;;;5012067;28;20038;-77
2022/11/22 09:50:22;;;;;;;5.47;2.90;;;;;;;;;;5012367;28;20468;-76
2022/11/22 09:52:49;;;;;;;8.88;3.35;;;;;;;;;;5013430;28;20065;-75
2022/11/22 09:55:35;;;;;;;11.52;2.85;;;;;;;;;;5013439;28;20438;-76
2022/11/22 09:58:19;;;;;;;10.43;3.80;;;;;;;;;;5012363;28;20038;-75
2022/11/22 10:00:45;;;;;;;;;;;;;;;;;;5013032;28;20068;-76
2022/11/22 10:03:27;;;;;;;4.45;2.10;;;;;;;;;;5011847;28;20236;-75
2022/11/22 10:05:56;;;;;;;4.82;2.17;;;;;;;;;;5011569;28;20388;-76
2022/11/22 10:08:40;;;;;;;16.10;2.88;;;;;;;;;;4990101;28;20392;-75
2022/11/22 10:11:35;;;;;;;5.07;2.03;;;;;;;;;;5006769;28;20483;-77
2022/11/22 10:14:12;;;;;;;9.43;2.53;;;;;;;;;;5011895;28;20049;-75
2022/11/22 10:16:46;;;;;;;6.30;2.22;;;;;;;;;;5004897;28;20042;-75
2022/11/22 10:19:21;;;;;;;9.68;3.58;;;;;;;;;;5006662;28;20092;-76
2022/11/22 10:21:47;;;;;;;5.13;2.05;;;;;;;;;;5005080;28;20050;-75
2022/11/22 10:24:16;;;;;;;5.70;2.00;;;;;;;;;;5006654;28;20042;-74
2022/11/22 10:26:42;;;;;;;7.47;1.80;;;;;;;;;;5007862;28;20045;-73
2022/11/22 10:29:14;;;;;;;5.03;1.60;;;;;;;;;;5006151;28;20022;-75
2022/11/22 10:31:43;;;;;;;5.10;1.40;;;;;;;;;;5014655;28;20034;-75
2022/11/22 10:34:20;;;;;;;5.25;2.50;;;;;;;;;;5005793;28;20030;-75
2022/11/22 10:36:55;;;;;;;7.90;3.35;;;;;;;;;;5003610;28;20096;-76
2022/11/22 10:39:27;;;;;;;2.63;1.50;;;;;;;;;;5005682;28;20070;-76
2022/11/22 10:42:27;;;;;;;3.42;1.55;;;;;;;;;;5006227;28;20527;-73
2022/11/22 10:45:13;;;;;;;5.72;1.73;;;;;;;;;;4984932;28;20120;-75
2022/11/22 10:47:53;;;;;;;4.30;1.73;;;;;;;;;;5006722;28;20124;-76
2022/11/22 10:50:50;;;;;;;4.40;1.40;;;;;;;;;;5007245;28;20129;-74
2022/11/22 10:53:27;;;;;;;6.20;2.00;;;;;;;;;;4966386;28;20057;-77
2022/11/22 10:56:20;;;;;;;9.68;2.35;;;;;;;;;;5006252;28;20038;-75
2022/11/22 10:59:24;;;;;;;4.78;2.95;;;;;;;;;;5008180;28;20592;-76
2022/11/22 11:02:07;;;;;;;6.20;3.17;;;;;;;;;;5011668;28;20052;-75
2022/11/22 11:04:38;;;;;;;8.00;3.33;;;;;;;;;;5009378;28;20489;-76
2022/11/22 11:07:10;;;;;;;7.20;3.20;;;;;;;;;;5006065;28;20476;-75
2022/11/22 11:09:49;;;;;;;4.40;2.47;;;;;;;;;;5003395;28;20098;-76
2022/11/22 11:12:21;;;;;;;7.10;3.53;;;;;;;;;;5005857;28;20415;-74
2022/11/22 11:14:53;;;;;;;8.30;4.28;;;;;;;;;;5005509;28;20621;-75
2022/11/22 11:17:28;;;;;;;8.02;4.78;;;;;;;;;;5005920;28;20049;-76
2022/11/22 11:19:58;;;;;;;9.15;5.22;;;;;;;;;;5006553;28;20117;-74
2022/11/22 11:22:27;;;;;;;9.10;4.95;;;;;;;;;;5007277;28;20145;-75
2022/11/22 11:24:53;;;;;;;8.23;5.88;;;;;;;;;;5006376;28;20073;-76
2022/11/22 11:27:20;;;;;;;10.27;5.30;;;;;;;;;;4987917;28;20422;-77
2022/11/22 11:29:46;;;;;;;8.45;4.45;;;;;;;;;;5006668;28;20034;-77
2022/11/22 11:32:20;;;;;;;7.50;4.13;;;;;;;;;;5006510;28;20036;-77
2022/11/22 11:34:57;;;;;;;9.07;3.92;;;;;;;;;;5005376;28;20133;-76
2022/11/22 11:37:32;;;;;;;7.20;2.72;;;;;;;;;;5005475;28;20065;-75
2022/11/22 11:39:58;;;;;;;3.38;1.67;;;;;;;;;;5006364;28;20065;-73
2022/11/22 11:42:32;;;;;;;4.32;1.90;;;;;;;;;;5005053;28;20030;-75
2022/11/22 11:45:16;;;;;;;;;;;;;;;;;;5007711;28;20124;-76
2022/11/22 11:47:42;;;;;;;4.95;1.60;;;;;;;;;;5007073;28;19947;-77
2022/11/22 11:50:23;;;;;;;4.38;1.88;;;;;;;;;;4989606;28;20547;-75
2022/11/22 11:53:14;;;;;;;3.05;1.63;;;;;;;;;;5007739;28;20496;-75
2022/11/22 11:55:40;;;;;;;6.68;2.20;;;;;;;;;;5005481;28;20042;-76
2022/11/22 11:58:19;;;;;;;9.93;2.38;;;;;;;;;;5008633;28;20028;-77
2022/11/22 12:00:46;;;;;;;9.07;2.10;;;;;;;;;;5004860;28;20129;-74
2022/11/22 12:03:16;;;;;;;9.52;2.42;;;;;;;;;;5007292;28;20096;-73
2022/11/22 12:05:43;;;;;;;8.02;2.75;;;;;;;;;;5004417;28;20124;-76
2022/11/22 12:08:29;;;;;;;4.75;1.95;;;;;;;;;;4999588;28;20032;-78
2022/11/22 12:11:02;;;;;;;4.85;1.85;;;;;;;;;;5004761;28;20133;-76
2022/11/22 12:13:42;;;;;;;7.75;2.35;;;;;;;;;;5005565;28;20037;-73
2022/11/22 12:16:20;;;;;;;6.43;2.20;;;;;;;;;;5007809;28;20120;-73
2022/11/22 12:18:58;;;;;;;9.77;3.03;;;;;;;;;;5008722;28;20025;-72
2022/11/22 12:21:29;;;;;;;8.13;1.95;;;;;;;;;;5007122;28;20110;-72
2022/11/22 12:24:01;;;;;;;7.25;3.00;;;;;;;;;;5008878;28;20046;-74
2022/11/22 12:26:29;;;;;;;9.98;3.30;;;;;;;;;;5009037;28;20125;-77
2022/11/22 12:28:56;;;;;;;4.70;2.30;;;;;;;;;;5008283;28;20360;-72
2022/11/22 12:31:30;;;;;;;6.72;2.28;;;;;;;;;;5008920;28;20030;-74
2022/11/22 12:34:07;;;;;;;6.30;2.72;;;;;;;;;;5009437;28;20032;-73
2022/11/22 12:36:35;;;;;;;7.90;2.15;;;;;;;;;;5003247;28;20114;-75
2022/11/22 12:39:03;;;;;;;6.15;2.65;;;;;;;;;;5006282;28;20113;-74
2022/11/22 12:41:33;;;;;;;4.32;1.90;;;;;;;;;;5010878;28;20042;-73
2022/11/22 12:44:05;;;;;;;6.47;1.80;;;;;;;;;;5013404;28;20022;-72
2022/11/22 12:46:39;;;;;;;8.48;2.63;;;;;;;;;;5013909;28;20041;-72
2022/11/22 12:49:32;;;;;;;7.20;2.38;;;;;;;;;;5010879;28;20055;-74
2022/11/22 12:52:06;;;;;;;7.45;2.75;;;;;;;;;;5009992;28;20388;-74
2022/11/22 12:54:41;;;;;;;6.47;3.13;;;;;;;;;;5012837;28;20033;-73
2022/11/22 12:57:19;;;;;;;10.18;3.30;;;;;;;;;;5009816;28;20030;-73
2022/11/22 12:59:52;;;;;;;13.88;3.85;;;;;;;;;;5010692;28;20026;-76
2022/11/22 13:02:44;;;;;;;7.20;2.83;;;;;;;;;;5012823;28;20037;-75
2022/11/22 13:05:19;;;;;;;17.75;4.50;;;;;;;;;;5011225;28;20488;-77
2022/11/22 13:07:59;;;;;;;10.73;4.68;;;;;;;;;;5015863;28;20034;-75
2022/11/22 13:10:41;;;;;;;9.40;4.40;;;;;;;;;;5032338;28;20112;-74
2022/11/22 13:13:38;;;;;;;9.25;4.70;;;;;;;;;;5013557;28;20038;-74
2022/11/22 13:16:10;;;;;;;8.43;4.63;;;;;;;;;;4992645;28;20126;-74
2022/11/22 13:18:41;;;;;;;7.78;3.53;;;;;;;;;;5013722;28;20099;-73
2022/11/22 13:21:23;;;;;;;8.15;4.47;;;;;;;;;;5012734;28;20046;-73
2022/11/22 13:24:04;;;;;;;10.65;4.40;;;;;;;;;;5001226;28;20062;-73
2022/11/22 13:26:54;;;;;;;8.75;4.20;;;;;;;;;;4994200;28;20181;-74
2022/11/22 13:29:24;;;;;;;8.98;5.05;;;;;;;;;;5002203;28;20065;-73
2022/11/22 13:32:11;;;;;;;10.50;6.43;;;;;;;;;;4993234;28;20034;-73
2022/11/22 13:35:04;;;;;;;11.32;5.22;;;;;;;;;;4994263;28;20038;-74
2022/11/22 13:37:35;;;;;;;12.02;5.55;;;;;;;;;;4994862;28;20124;-75
2022/11/22 13:40:41;;;;;;;15.68;5.07;;;;;;;;;;4995070;28;20037;-75
2022/11/22 13:43:13;;;;;;;13.80;4.63;;;;;;;;;;4994835;28;20042;-76
2022/11/22 13:45:50;;;;;;;13.40;5.53;;;;;;;;;;4993457;28;20038;-74
2022/11/22 13:48:40;;;;;;;9.65;5.70;;;;;;;;;;4994597;28;20042;-73
2022/11/22 13:51:11;;;;;;;18.92;8.32;;;;;;;;;;4993873;28;20070;-74
2022/11/22 13:53:43;;;;;;;18.60;9.50;;;;;;;;;;4993908;28;20496;-73
2022/11/22 13:56:35;;;;;;;15.63;7.63;;;;;;;;;;4993690;28;20042;-73
2022/11/22 13:59:15;;;;;;;16.17;8.75;;;;;;;;;;4983721;28;20496;-73
2022/11/22 14:01:41;;;;;;;13.65;8.25;;;;;;;;;;4993992;28;20030;-74
2022/11/22 14:04:18;;;;;;;22.67;10.80;;;;;;;;;;4994287;28;20037;-75
2022/11/22 14:07:04;;;;;;;28.13;11.77;;;;;;;;;;4993496;28;20110;-73
2022/11/22 14:09:30;;;;;;;24.48;9.30;;;;;;;;;;4992951;28;20408;-74
2022/11/22 14:11:56;;;;;;;19.85;8.73;;;;;;;;;;5001183;28;20032;-73
2022/11/22 14:15:07;;;;;;;23.08;9.93;;;;;;;;;;5012043;28;20033;-75
2022/11/22 14:17:43;;;;;;;14.48;7.00;;;;;;;;;;5011897;28;20026;-74
2022/11/22 14:20:38;;;;;;;17.38;8.18;;;;;;;;;;5008311;28;20076;-74
2022/11/22 14:23:20;;;;;;;21.20;9.43;;;;;;;;;;5011148;28;20050;-76
2022/11/22 14:25:55;;;;;;;15.65;8.68;;;;;;;;;;5010346;28;20037;-74
2022/11/22 14:28:34;;;;;;;11.25;5.75;;;;;;;;;;5010463;28;20036;-74
2022/11/22 14:31:13;;;;;;;17.70;6.75;;;;;;;;;;5012646;28;20026;-76
2022/11/22 14:34:17;;;;;;;13.23;4.63;;;;;;;;;;5012309;28;20034;-77
2022/11/22 14:37:06;;;;;;;;;;;;;;;;;;5003398;28;20404;-78
2022/11/22 14:39:46;;;;;;;14.88;6.00;;;;;;;;;;4997216;28;20383;-76
2022/11/22 14:45:04;;;;;;;11.52;7.28;;;;;;;;;;5009377;28;20085;-75
2022/11/22 14:47:33;;;;;;;16.45;8.10;;;;;;;;;;5009894;28;20045;-75
2022/11/22 14:50:03;;;;;;;21.65;10.57;;;;;;;;;;5006703;28;20029;-73
2022/11/22 14:52:31;;;;;;;19.02;10.10;;;;;;;;;;5011645;28;20492;-74
2022/11/22 14:55:04;;;;;;;16.10;8.85;;;;;;;;;;5011819;28;20084;-76
2022/11/22 14:57:32;;;;;;;;;;;;;;;;;;5008294;28;20045;-73
2022/11/22 15:00:18;;;;;;;17.83;8.38;;;;;;;;;;4991385;28;19910;-76
2022/11/22 15:02:56;;;;;;;17.85;9.75;;;;;;;;;;4992846;28;20022;-74
2022/11/22 15:05:55;;;;;;;15.88;8.20;;;;;;;;;;4993036;28;20042;-76
2022/11/22 15:08:45;;;;;;;15.23;7.75;;;;;;;;;;4985102;28;20361;-76
2022/11/22 15:11:32;;;;;;;21.60;7.47;;;;;;;;;;5001924;28;20046;-77
2022/11/22 15:13:59;;;;;;;15.30;7.40;;;;;;;;;;5011125;28;20101;-75
2022/11/22 15:16:28;;;;;;;10.35;6.65;;;;;;;;;;5010262;28;20117;-75
2022/11/22 15:18:54;;;;;;;12.13;5.88;;;;;;;;;;5011219;28;20065;-78
2022/11/22 15:21:27;;;;;;;11.07;5.63;;;;;;;;;;5011954;28;20108;-74